Terminal Aerodrome Forecast
Issued by NWS Pendleton, OR

Home | Current Version | Previous Version | Text Only | Print | Product List | Glossary On
Versions: 1 2 3 4 5 6 7 8 9 10 11 12 13 14
869
FTUS46 KPDT 230539
TAFPDT
TAF
KPDT 230539Z 2306/2406 15007KT P6SM SCT150
     FM231500 VRB06KT P6SM SCT100
     FM232000 32007KT P6SM SKC
     FM240400 15007KT P6SM SCT250=

USA.gov is the U.S. government's official web portal to all federal, state and local government web resources and services.